Time;durP1;ratioP1;P1;durP2;ratioP2;P2;SDS_P1;SDS_P2;PMS_P1;PMS_P2;Temp;Humidity;BMP_temperature;BMP_pressure;BME280_temperature;BME280_humidity;BME280_pressure;Samples;Min_cycle;Max_cycle;Signal;HPM_P1;HPM_P2
2023/06/06 00:01:03;;;;;;;1.90;1.80;;;;;;;;;;5094823;28;20484;-63
2023/06/06 00:03:29;;;;;;;3.38;1.77;;;;;;;;;;5095032;28;20016;-63
2023/06/06 00:05:55;;;;;;;2.63;1.95;;;;;;;;;;5094623;28;20463;-63
2023/06/06 00:08:23;;;;;;;3.70;1.92;;;;;;;;;;5094653;28;20035;-63
2023/06/06 00:10:49;;;;;;;1.70;1.58;;;;;;;;;;5094951;28;20054;-65
2023/06/06 00:13:15;;;;;;;2.08;1.58;;;;;;;;;;5094537;28;20450;-64
2023/06/06 00:15:41;;;;;;;2.78;1.83;;;;;;;;;;5094850;28;20072;-63
2023/06/06 00:18:07;;;;;;;1.85;1.70;;;;;;;;;;5094394;28;20047;-63
2023/06/06 00:20:32;;;;;;;1.83;1.73;;;;;;;;;;5094435;28;20332;-63
2023/06/06 00:22:59;;;;;;;1.92;1.83;;;;;;;;;;5094729;28;20032;-63
2023/06/06 00:25:25;;;;;;;1.90;1.80;;;;;;;;;;5094338;28;20085;-63
2023/06/06 00:27:51;;;;;;;1.75;1.63;;;;;;;;;;5094191;28;20039;-63
2023/06/06 00:30:16;;;;;;;1.95;1.83;;;;;;;;;;5094608;28;20031;-63
2023/06/06 00:32:42;;;;;;;1.77;1.67;;;;;;;;;;5094193;28;20393;-62
2023/06/06 00:35:07;;;;;;;3.35;1.67;;;;;;;;;;5094214;28;20039;-63
2023/06/06 00:37:33;;;;;;;1.70;1.60;;;;;;;;;;5094094;28;20115;-63
2023/06/06 00:39:59;;;;;;;2.45;1.98;;;;;;;;;;5093953;28;20051;-63
2023/06/06 00:42:24;;;;;;;1.88;1.77;;;;;;;;;;5094030;28;20074;-63
2023/06/06 00:44:50;;;;;;;1.70;1.60;;;;;;;;;;5094082;28;20024;-63
2023/06/06 00:47:16;;;;;;;1.80;1.70;;;;;;;;;;5093830;28;20059;-64
2023/06/06 00:49:45;;;;;;;1.80;1.70;;;;;;;;;;5093994;28;20020;-63
2023/06/06 00:52:11;;;;;;;4.15;1.80;;;;;;;;;;5094019;28;20058;-63
2023/06/06 00:54:37;;;;;;;1.80;1.70;;;;;;;;;;5093740;28;20064;-63
2023/06/06 00:57:07;;;;;;;2.28;1.70;;;;;;;;;;5093584;28;20027;-63
2023/06/06 00:59:32;;;;;;;1.98;1.60;;;;;;;;;;5094008;28;20390;-63
2023/06/06 01:01:58;;;;;;;2.15;2.00;;;;;;;;;;5094002;28;20048;-63
2023/06/06 01:04:24;;;;;;;1.80;1.70;;;;;;;;;;5093663;28;20028;-63
2023/06/06 01:06:51;;;;;;;2.28;1.90;;;;;;;;;;5093464;28;20535;-63
2023/06/06 01:09:19;;;;;;;2.10;1.88;;;;;;;;;;5093862;28;20383;-63
2023/06/06 01:12:02;;;;;;;2.65;1.80;;;;;;;;;;5093454;28;20024;-63
2023/06/06 01:14:44;;;;;;;2.13;1.50;;;;;;;;;;5093839;28;20028;-63
2023/06/06 01:17:11;;;;;;;1.92;1.80;;;;;;;;;;5093441;28;20028;-63
2023/06/06 01:19:41;;;;;;;1.88;1.70;;;;;;;;;;5093284;28;20024;-63
2023/06/06 01:22:07;;;;;;;2.55;1.60;;;;;;;;;;5093258;28;20034;-63
2023/06/06 01:24:36;;;;;;;2.03;1.80;;;;;;;;;;5093521;28;20516;-63
2023/06/06 01:27:03;;;;;;;1.80;1.70;;;;;;;;;;5093373;28;20024;-63
2023/06/06 01:29:30;;;;;;;1.88;1.70;;;;;;;;;;5093433;28;20024;-63
2023/06/06 01:32:24;;;;;;;1.67;1.45;;;;;;;;;;5108917;28;20111;-64
2023/06/06 01:35:06;;;;;;;1.92;1.67;;;;;;;;;;5093081;28;20493;-64
2023/06/06 01:37:55;;;;;;;1.70;1.60;;;;;;;;;;5093120;28;20468;-63
2023/06/06 01:40:26;;;;;;;1.90;1.80;;;;;;;;;;5092762;28;20140;-64
2023/06/06 01:42:53;;;;;;;1.98;1.83;;;;;;;;;;5092995;28;20767;-64
2023/06/06 01:45:25;;;;;;;1.77;1.67;;;;;;;;;;5092877;28;20107;-64
2023/06/06 01:47:51;;;;;;;1.70;1.50;;;;;;;;;;5092897;28;20032;-63
2023/06/06 01:50:17;;;;;;;1.73;1.63;;;;;;;;;;5092733;28;20091;-63
2023/06/06 01:52:43;;;;;;;1.83;1.73;;;;;;;;;;5093100;28;20093;-64
2023/06/06 01:55:09;;;;;;;2.00;1.80;;;;;;;;;;5092768;28;20032;-63
2023/06/06 01:57:34;;;;;;;1.60;1.52;;;;;;;;;;5093080;28;20031;-64
2023/06/06 02:00:00;;;;;;;1.80;1.70;;;;;;;;;;5092650;28;20552;-63
2023/06/06 02:02:27;;;;;;;3.22;1.95;;;;;;;;;;5091612;28;20047;-63
2023/06/06 02:04:53;;;;;;;1.85;1.75;;;;;;;;;;5092870;28;20047;-63
2023/06/06 02:07:19;;;;;;;1.88;1.77;;;;;;;;;;5091703;28;20049;-63
2023/06/06 02:09:44;;;;;;;1.98;1.77;;;;;;;;;;5092567;28;20624;-63
2023/06/06 02:12:10;;;;;;;2.55;1.75;;;;;;;;;;5092515;28;20020;-67
2023/06/06 02:14:36;;;;;;;2.20;2.00;;;;;;;;;;5092572;28;20066;-63
2023/06/06 02:17:03;;;;;;;1.75;1.65;;;;;;;;;;5092590;28;20020;-63
2023/06/06 02:19:31;;;;;;;1.67;1.58;;;;;;;;;;5092680;28;20106;-63
2023/06/06 02:21:56;;;;;;;3.38;1.90;;;;;;;;;;5092804;28;20488;-63
2023/06/06 02:24:24;;;;;;;2.30;1.90;;;;;;;;;;5092365;28;20031;-63
2023/06/06 02:26:53;;;;;;;1.90;1.80;;;;;;;;;;5092414;28;20496;-63
2023/06/06 02:29:20;;;;;;;1.80;1.70;;;;;;;;;;5092432;28;20480;-64
2023/06/06 02:31:46;;;;;;;1.83;1.73;;;;;;;;;;5092453;28;20024;-63
2023/06/06 02:34:11;;;;;;;1.80;1.70;;;;;;;;;;5092329;28;20031;-63
2023/06/06 02:36:38;;;;;;;1.70;1.60;;;;;;;;;;5092348;28;20074;-63
2023/06/06 02:39:04;;;;;;;1.90;1.80;;;;;;;;;;5092068;28;20492;-63
2023/06/06 02:41:30;;;;;;;1.80;1.70;;;;;;;;;;5092576;28;20363;-63
2023/06/06 02:43:55;;;;;;;2.00;1.80;;;;;;;;;;5092550;28;20031;-64
2023/06/06 02:46:21;;;;;;;1.70;1.60;;;;;;;;;;5092432;28;20070;-64
2023/06/06 02:48:48;;;;;;;1.60;1.50;;;;;;;;;;5092219;28;20036;-64
2023/06/06 02:51:19;;;;;;;1.73;1.63;;;;;;;;;;5092167;28;20043;-64
2023/06/06 02:53:45;;;;;;;2.00;1.80;;;;;;;;;;5092196;28;20059;-64
2023/06/06 02:56:12;;;;;;;1.95;1.80;;;;;;;;;;5092438;28;20039;-64
2023/06/06 02:58:38;;;;;;;1.90;1.80;;;;;;;;;;5092168;28;20028;-63
2023/06/06 03:01:05;;;;;;;2.20;1.88;;;;;;;;;;5092128;28;20024;-64
2023/06/06 03:03:30;;;;;;;1.90;1.80;;;;;;;;;;5092028;28;20092;-66
2023/06/06 03:05:56;;;;;;;2.28;1.75;;;;;;;;;;5092006;28;20031;-63
2023/06/06 03:08:23;;;;;;;1.83;1.73;;;;;;;;;;5091994;28;20491;-63
2023/06/06 03:10:50;;;;;;;1.60;1.50;;;;;;;;;;5091978;28;20062;-64
2023/06/06 03:13:16;;;;;;;2.05;1.85;;;;;;;;;;5092262;28;20028;-63
2023/06/06 03:15:45;;;;;;;1.70;1.60;;;;;;;;;;5091996;28;20043;-63
2023/06/06 03:18:12;;;;;;;2.00;1.90;;;;;;;;;;5092270;28;20031;-65
2023/06/06 03:20:41;;;;;;;1.65;1.55;;;;;;;;;;5095945;28;20028;-63
2023/06/06 03:23:10;;;;;;;2.17;1.98;;;;;;;;;;5095817;28;20028;-63
2023/06/06 03:25:37;;;;;;;1.83;1.73;;;;;;;;;;5095529;28;20032;-63
2023/06/06 03:28:02;;;;;;;2.17;1.75;;;;;;;;;;5095426;28;20032;-63
2023/06/06 03:30:28;;;;;;;2.78;2.20;;;;;;;;;;5095482;28;20093;-64
2023/06/06 03:32:55;;;;;;;1.77;1.67;;;;;;;;;;5095400;28;20027;-64
2023/06/06 03:35:21;;;;;;;2.05;1.95;;;;;;;;;;5095295;28;20024;-63
2023/06/06 03:37:47;;;;;;;2.08;1.90;;;;;;;;;;5095734;28;20067;-63
2023/06/06 03:40:13;;;;;;;1.73;1.63;;;;;;;;;;5095135;28;20499;-64
2023/06/06 03:42:38;;;;;;;1.80;1.70;;;;;;;;;;5095215;28;20024;-63
2023/06/06 03:45:05;;;;;;;2.60;1.60;;;;;;;;;;5095164;28;20024;-63
2023/06/06 03:47:31;;;;;;;2.00;1.90;;;;;;;;;;5095366;28;20437;-64
2023/06/06 03:49:56;;;;;;;1.83;1.73;;;;;;;;;;5095377;28;20052;-63
2023/06/06 03:52:22;;;;;;;1.88;1.77;;;;;;;;;;5094846;28;20392;-67
2023/06/06 03:54:48;;;;;;;2.53;1.80;;;;;;;;;;5089705;28;20064;-63
2023/06/06 03:57:14;;;;;;;2.05;1.88;;;;;;;;;;5092019;28;20398;-64
2023/06/06 03:59:40;;;;;;;1.77;1.67;;;;;;;;;;5094942;28;20024;-65
2023/06/06 04:02:06;;;;;;;1.75;1.65;;;;;;;;;;5095105;28;20383;-63
2023/06/06 04:04:32;;;;;;;2.58;1.73;;;;;;;;;;5094736;28;20039;-63
2023/06/06 04:06:58;;;;;;;1.92;1.83;;;;;;;;;;5094588;28;20043;-64
2023/06/06 04:09:24;;;;;;;2.72;2.33;;;;;;;;;;5094676;28;20028;-63
2023/06/06 04:11:50;;;;;;;2.40;1.77;;;;;;;;;;5094653;28;20028;-63
2023/06/06 04:14:15;;;;;;;2.13;1.92;;;;;;;;;;5094563;28;20039;-63
2023/06/06 04:16:41;;;;;;;5.88;1.98;;;;;;;;;;5094524;28;20023;-63
2023/06/06 04:19:07;;;;;;;2.00;1.90;;;;;;;;;;5094487;28;20028;-63
2023/06/06 04:21:33;;;;;;;2.47;2.28;;;;;;;;;;5094360;28;20062;-63
2023/06/06 04:23:59;;;;;;;3.15;1.98;;;;;;;;;;5094331;28;20048;-63
2023/06/06 04:26:26;;;;;;;2.30;2.03;;;;;;;;;;5094630;28;20062;-64
2023/06/06 04:28:58;;;;;;;1.80;1.70;;;;;;;;;;5094628;28;20051;-63
2023/06/06 04:31:26;;;;;;;2.05;1.75;;;;;;;;;;5093788;28;20032;-64
2023/06/06 04:33:55;;;;;;;2.00;1.90;;;;;;;;;;5094108;28;20028;-64
2023/06/06 04:36:22;;;;;;;2.00;1.90;;;;;;;;;;5094205;28;20059;-64
2023/06/06 04:38:51;;;;;;;2.08;1.88;;;;;;;;;;5094117;28;20176;-65
2023/06/06 04:41:17;;;;;;;2.17;1.87;;;;;;;;;;5094040;28;20433;-65
2023/06/06 04:43:49;;;;;;;2.22;2.00;;;;;;;;;;5094272;28;20062;-64
2023/06/06 04:46:21;;;;;;;2.55;2.10;;;;;;;;;;5094157;28;20470;-64
2023/06/06 04:48:53;;;;;;;2.50;2.00;;;;;;;;;;5093971;28;20103;-67
2023/06/06 04:51:20;;;;;;;2.92;2.10;;;;;;;;;;5093918;28;20104;-64
2023/06/06 04:53:46;;;;;;;2.40;2.20;;;;;;;;;;5094106;28;20375;-66
2023/06/06 04:56:12;;;;;;;1.85;1.75;;;;;;;;;;5094041;28;20047;-65
2023/06/06 04:58:39;;;;;;;2.00;1.90;;;;;;;;;;5093606;28;20032;-66
2023/06/06 05:01:04;;;;;;;2.75;1.92;;;;;;;;;;5093969;28;20047;-66
2023/06/06 05:03:31;;;;;;;2.17;2.00;;;;;;;;;;5092385;28;20608;-65
2023/06/06 05:05:57;;;;;;;1.90;1.80;;;;;;;;;;5093860;28;20111;-63
2023/06/06 05:08:22;;;;;;;2.85;2.10;;;;;;;;;;5093537;28;20115;-64
2023/06/06 05:10:48;;;;;;;2.65;1.90;;;;;;;;;;5093850;28;20035;-65
2023/06/06 05:13:17;;;;;;;2.25;2.05;;;;;;;;;;5093403;28;20065;-64
2023/06/06 05:15:43;;;;;;;2.40;1.90;;;;;;;;;;5092263;28;20070;-65
2023/06/06 05:18:08;;;;;;;1.90;1.73;;;;;;;;;;5093299;28;20493;-66
2023/06/06 05:20:34;;;;;;;2.00;1.90;;;;;;;;;;5091821;28;20110;-64
2023/06/06 05:23:00;;;;;;;1.90;1.80;;;;;;;;;;5091259;28;20031;-69
2023/06/06 05:25:25;;;;;;;2.08;1.90;;;;;;;;;;5093433;28;20348;-64
2023/06/06 05:27:51;;;;;;;3.97;2.22;;;;;;;;;;5093042;28;20039;-64
2023/06/06 05:30:17;;;;;;;2.55;2.33;;;;;;;;;;5093053;28;20135;-66
2023/06/06 05:32:43;;;;;;;2.35;2.00;;;;;;;;;;5093025;28;20103;-63
2023/06/06 05:35:08;;;;;;;2.22;2.13;;;;;;;;;;5093048;28;20389;-65
2023/06/06 05:37:34;;;;;;;4.97;2.97;;;;;;;;;;5089731;28;20089;-62
2023/06/06 05:40:00;;;;;;;2.63;2.08;;;;;;;;;;5092733;28;20061;-66
2023/06/06 05:42:25;;;;;;;2.08;1.92;;;;;;;;;;5092817;28;20020;-69
2023/06/06 05:44:51;;;;;;;2.20;2.00;;;;;;;;;;5090786;28;20030;-62
2023/06/06 05:47:16;;;;;;;1.95;1.85;;;;;;;;;;5093041;28;20042;-63
2023/06/06 05:49:42;;;;;;;2.20;2.00;;;;;;;;;;5092847;28;20103;-67
2023/06/06 05:52:08;;;;;;;2.40;2.20;;;;;;;;;;5092508;28;20058;-68
2023/06/06 05:54:34;;;;;;;2.10;2.00;;;;;;;;;;5092227;28;20372;-64
2023/06/06 05:57:00;;;;;;;2.58;2.38;;;;;;;;;;5092568;28;20035;-66
2023/06/06 05:59:26;;;;;;;2.25;2.05;;;;;;;;;;5092060;28;20032;-65
2023/06/06 06:01:52;;;;;;;2.63;2.10;;;;;;;;;;5092336;28;20047;-68
2023/06/06 06:04:19;;;;;;;2.47;2.28;;;;;;;;;;5092870;28;20081;-66
2023/06/06 06:06:48;;;;;;;2.03;1.92;;;;;;;;;;5092444;28;20039;-68
2023/06/06 06:09:14;;;;;;;2.90;2.30;;;;;;;;;;5092568;28;20028;-69
2023/06/06 06:11:40;;;;;;;2.88;2.10;;;;;;;;;;5092492;28;20080;-65
2023/06/06 06:14:06;;;;;;;2.35;2.00;;;;;;;;;;5092816;28;20031;-64
2023/06/06 06:16:32;;;;;;;3.13;2.10;;;;;;;;;;5092323;28;20392;-67
2023/06/06 06:18:57;;;;;;;2.45;2.13;;;;;;;;;;5092379;28;20032;-64
2023/06/06 06:21:24;;;;;;;2.30;2.15;;;;;;;;;;5092426;28;20031;-68
2023/06/06 06:23:50;;;;;;;2.25;2.05;;;;;;;;;;5092303;28;20084;-69
2023/06/06 06:26:16;;;;;;;2.17;1.90;;;;;;;;;;5092441;28;20025;-64
2023/06/06 06:28:42;;;;;;;2.50;2.30;;;;;;;;;;5092297;28;20021;-65
2023/06/06 06:31:07;;;;;;;2.67;2.13;;;;;;;;;;5092557;28;20038;-62
2023/06/06 06:33:33;;;;;;;2.35;2.15;;;;;;;;;;5092515;28;20037;-68
2023/06/06 06:36:00;;;;;;;4.05;2.20;;;;;;;;;;5092229;28;20045;-69
2023/06/06 06:38:25;;;;;;;2.03;1.90;;;;;;;;;;5092247;28;20357;-68
2023/06/06 06:40:52;;;;;;;2.50;2.10;;;;;;;;;;5092343;28;20031;-64
2023/06/06 06:43:18;;;;;;;2.35;2.15;;;;;;;;;;5092206;28;20472;-64
2023/06/06 06:45:43;;;;;;;2.28;2.08;;;;;;;;;;5092184;28;20028;-64
2023/06/06 06:48:09;;;;;;;2.22;2.03;;;;;;;;;;5092104;28;20074;-62
2023/06/06 06:50:34;;;;;;;2.33;2.13;;;;;;;;;;5092109;28;20161;-69
2023/06/06 06:53:02;;;;;;;2.40;2.10;;;;;;;;;;5092382;28;20028;-63
2023/06/06 06:55:27;;;;;;;2.75;2.20;;;;;;;;;;5096030;28;20032;-65
2023/06/06 06:57:53;;;;;;;2.25;2.05;;;;;;;;;;5096072;28;20094;-70
2023/06/06 07:00:23;;;;;;;3.53;2.30;;;;;;;;;;5094758;28;20020;-69
2023/06/06 07:02:50;;;;;;;2.47;2.28;;;;;;;;;;5096224;28;20190;-68
2023/06/06 07:05:16;;;;;;;2.80;2.10;;;;;;;;;;5096197;28;20057;-70
2023/06/06 07:07:50;;;;;;;3.75;2.40;;;;;;;;;;5095840;28;20157;-68
2023/06/06 07:10:16;;;;;;;2.30;2.10;;;;;;;;;;5095790;28;20024;-66
2023/06/06 07:12:47;;;;;;;2.35;2.15;;;;;;;;;;5094511;28;20121;-67
2023/06/06 07:15:13;;;;;;;2.88;2.05;;;;;;;;;;5094459;28;20044;-66
2023/06/06 07:17:38;;;;;;;2.47;1.90;;;;;;;;;;5093213;28;20463;-70
2023/06/06 07:20:05;;;;;;;2.50;2.30;;;;;;;;;;5092463;28;20468;-66
2023/06/06 07:22:36;;;;;;;4.65;2.60;;;;;;;;;;5094711;28;20064;-69
2023/06/06 07:25:03;;;;;;;2.47;2.28;;;;;;;;;;5093738;28;20378;-70
2023/06/06 07:27:33;;;;;;;3.80;2.17;;;;;;;;;;5093908;28;20555;-67
2023/06/06 07:29:59;;;;;;;3.38;2.05;;;;;;;;;;5094191;28;20047;-69
2023/06/06 07:32:25;;;;;;;2.55;2.35;;;;;;;;;;5093613;28;20100;-69
2023/06/06 07:34:50;;;;;;;2.70;2.50;;;;;;;;;;5093777;28;20130;-66
2023/06/06 07:37:16;;;;;;;2.45;2.25;;;;;;;;;;5093578;28;20031;-71
2023/06/06 07:39:43;;;;;;;2.47;2.25;;;;;;;;;;5093636;28;20052;-70
2023/06/06 07:42:09;;;;;;;2.80;2.30;;;;;;;;;;5093870;28;20036;-68
2023/06/06 07:44:34;;;;;;;2.55;2.20;;;;;;;;;;5093890;28;20379;-64
2023/06/06 07:47:00;;;;;;;3.38;2.28;;;;;;;;;;5093404;28;20459;-63
2023/06/06 07:49:25;;;;;;;2.53;2.33;;;;;;;;;;5093526;28;20035;-63
2023/06/06 07:51:51;;;;;;;2.53;2.33;;;;;;;;;;5093744;28;20116;-67
2023/06/06 07:54:16;;;;;;;2.65;2.45;;;;;;;;;;5093579;28;20454;-63
2023/06/06 07:56:44;;;;;;;2.42;2.22;;;;;;;;;;5093458;28;20785;-70
2023/06/06 07:59:10;;;;;;;2.40;2.20;;;;;;;;;;5094769;28;20028;-70
2023/06/06 08:01:36;;;;;;;2.33;2.05;;;;;;;;;;5092975;28;20483;-66
2023/06/06 08:04:01;;;;;;;2.33;2.10;;;;;;;;;;5092772;28;20021;-66
2023/06/06 08:06:37;;;;;;;2.70;2.47;;;;;;;;;;5074375;28;20027;-65
2023/06/06 08:09:06;;;;;;;3.08;2.50;;;;;;;;;;5092218;28;20088;-65
2023/06/06 08:11:34;;;;;;;2.83;2.38;;;;;;;;;;5094551;28;20483;-69
2023/06/06 08:14:00;;;;;;;2.60;2.22;;;;;;;;;;5080524;28;20422;-68
2023/06/06 08:16:25;;;;;;;2.80;2.50;;;;;;;;;;5075714;28;20032;-68
2023/06/06 08:18:51;;;;;;;2.60;2.35;;;;;;;;;;5094189;28;20503;-68
2023/06/06 08:21:16;;;;;;;2.80;2.53;;;;;;;;;;5093348;28;20093;-66
2023/06/06 08:23:42;;;;;;;3.17;2.50;;;;;;;;;;5074026;28;20036;-62
2023/06/06 08:26:08;;;;;;;2.72;2.53;;;;;;;;;;5074206;28;20021;-69
2023/06/06 08:28:34;;;;;;;3.03;2.72;;;;;;;;;;5073713;28;20052;-68
2023/06/06 08:31:02;;;;;;;2.78;2.30;;;;;;;;;;5074985;28;20113;-63
2023/06/06 08:33:27;;;;;;;3.13;2.80;;;;;;;;;;5072704;28;20501;-66
2023/06/06 08:35:53;;;;;;;2.50;2.30;;;;;;;;;;5072216;28;20150;-64
2023/06/06 08:38:18;;;;;;;2.80;2.58;;;;;;;;;;5071929;28;20051;-64
2023/06/06 08:40:44;;;;;;;2.90;2.70;;;;;;;;;;5072138;28;20025;-68
2023/06/06 08:43:14;;;;;;;2.72;2.53;;;;;;;;;;5082176;28;20033;-67
2023/06/06 08:45:52;;;;;;;4.78;4.28;;;;;;;;;;5092351;28;20407;-67
2023/06/06 08:48:19;;;;;;;6.32;5.53;;;;;;;;;;5092316;28;20040;-67
2023/06/06 08:50:45;;;;;;;6.18;5.57;;;;;;;;;;5092209;28;20035;-64
2023/06/06 08:53:14;;;;;;;7.50;5.20;;;;;;;;;;5092146;28;20024;-65
2023/06/06 08:55:40;;;;;;;5.72;4.70;;;;;;;;;;5092381;28;20028;-67
2023/06/06 08:58:06;;;;;;;8.88;5.00;;;;;;;;;;5091968;28;20036;-68
2023/06/06 09:00:33;;;;;;;7.30;4.55;;;;;;;;;;5091872;28;20024;-66
2023/06/06 09:02:59;;;;;;;5.03;4.32;;;;;;;;;;5090233;28;20027;-65
2023/06/06 09:05:25;;;;;;;9.93;4.70;;;;;;;;;;5091014;28;20070;-68
2023/06/06 09:07:53;;;;;;;10.15;6.30;;;;;;;;;;5090488;28;20115;-63
2023/06/06 09:10:19;;;;;;;11.20;5.70;;;;;;;;;;5073838;28;20387;-61
2023/06/06 09:12:46;;;;;;;10.32;4.75;;;;;;;;;;5091593;28;20069;-61
2023/06/06 09:15:13;;;;;;;14.82;5.38;;;;;;;;;;5089876;28;20024;-63
2023/06/06 09:17:39;;;;;;;8.95;5.20;;;;;;;;;;5090890;28;20028;-61
2023/06/06 09:20:09;;;;;;;6.40;5.13;;;;;;;;;;5090900;28;20111;-63
2023/06/06 09:22:43;;;;;;;5.13;4.63;;;;;;;;;;5091460;28;20107;-62
2023/06/06 09:25:24;;;;;;;7.00;4.47;;;;;;;;;;5091339;28;20024;-63
2023/06/06 09:28:01;;;;;;;6.55;4.75;;;;;;;;;;5088490;28;20046;-63
2023/06/06 09:30:29;;;;;;;4.70;4.20;;;;;;;;;;5091451;28;20103;-62
2023/06/06 09:33:01;;;;;;;6.97;4.32;;;;;;;;;;5091347;28;20035;-63
2023/06/06 09:35:40;;;;;;;11.02;4.10;;;;;;;;;;5090065;28;20024;-65
2023/06/06 09:38:08;;;;;;;6.70;4.30;;;;;;;;;;5091343;28;20081;-63
2023/06/06 09:40:44;;;;;;;6.28;4.00;;;;;;;;;;5091032;28;20131;-64
2023/06/06 09:43:10;;;;;;;4.68;4.18;;;;;;;;;;5091316;28;20027;-64
2023/06/06 09:45:52;;;;;;;7.30;4.03;;;;;;;;;;5091540;28;20031;-65
2023/06/06 09:48:27;;;;;;;6.13;4.10;;;;;;;;;;5091241;28;20034;-63
2023/06/06 09:50:53;;;;;;;5.63;3.88;;;;;;;;;;5091290;28;20034;-65
2023/06/06 09:53:23;;;;;;;4.05;3.70;;;;;;;;;;5090988;28;20027;-62
2023/06/06 09:55:49;;;;;;;6.00;4.15;;;;;;;;;;5091219;28;20026;-67
2023/06/06 09:58:16;;;;;;;5.93;3.85;;;;;;;;;;5089343;28;20059;-67
2023/06/06 10:00:45;;;;;;;9.48;4.80;;;;;;;;;;5090192;28;20511;-64
2023/06/06 10:03:18;;;;;;;14.35;4.28;;;;;;;;;;5090568;28;20027;-64
2023/06/06 10:05:50;;;;;;;11.75;4.15;;;;;;;;;;5090904;28;20028;-67
2023/06/06 10:08:17;;;;;;;8.00;4.07;;;;;;;;;;5090644;28;20043;-67
2023/06/06 10:10:46;;;;;;;15.60;4.50;;;;;;;;;;5089207;28;20502;-63
2023/06/06 10:13:22;;;;;;;8.70;4.03;;;;;;;;;;5070474;28;20495;-66
2023/06/06 10:15:49;;;;;;;6.28;3.92;;;;;;;;;;5082334;28;20092;-65
2023/06/06 10:18:15;;;;;;;6.55;3.80;;;;;;;;;;5069178;28;20082;-63
2023/06/06 10:20:44;;;;;;;9.82;4.00;;;;;;;;;;5080474;28;20054;-66
2023/06/06 10:23:09;;;;;;;7.10;4.75;;;;;;;;;;5090544;28;20044;-67
2023/06/06 10:25:37;;;;;;;6.65;4.00;;;;;;;;;;5087983;28;20155;-65
2023/06/06 10:28:08;;;;;;;7.30;4.15;;;;;;;;;;5090361;28;20036;-66
2023/06/06 10:30:43;;;;;;;7.13;3.90;;;;;;;;;;5091764;28;20577;-66
2023/06/06 10:33:33;;;;;;;4.97;4.00;;;;;;;;;;5094979;28;20054;-67
2023/06/06 10:36:04;;;;;;;4.35;3.70;;;;;;;;;;5093387;28;20028;-66
2023/06/06 10:38:33;;;;;;;4.22;3.70;;;;;;;;;;5094426;28;20493;-63
2023/06/06 10:40:59;;;;;;;6.03;4.20;;;;;;;;;;5094890;28;20034;-65
2023/06/06 10:43:33;;;;;;;5.50;3.85;;;;;;;;;;5094718;28;20443;-66
2023/06/06 10:45:59;;;;;;;6.18;4.15;;;;;;;;;;5094694;28;20032;-64
2023/06/06 10:48:42;;;;;;;5.80;4.72;;;;;;;;;;5094747;28;20036;-65
2023/06/06 10:51:23;;;;;;;6.57;4.60;;;;;;;;;;5094479;28;20032;-65
2023/06/06 10:54:19;;;;;;;4.85;4.40;;;;;;;;;;5094531;28;20077;-63
2023/06/06 10:56:51;;;;;;;5.72;3.90;;;;;;;;;;5094508;28;20024;-64
2023/06/06 10:59:21;;;;;;;7.15;4.95;;;;;;;;;;5094614;28;20028;-66
2023/06/06 11:01:47;;;;;;;6.35;4.70;;;;;;;;;;5093174;28;20542;-63
2023/06/06 11:04:20;;;;;;;8.90;5.18;;;;;;;;;;5092739;28;20028;-62
2023/06/06 11:06:50;;;;;;;5.50;4.70;;;;;;;;;;5091730;28;20053;-63
2023/06/06 11:09:18;;;;;;;8.13;5.03;;;;;;;;;;5091863;28;20032;-64
2023/06/06 11:11:44;;;;;;;11.00;4.97;;;;;;;;;;5093546;28;20426;-62
2023/06/06 11:14:10;;;;;;;8.13;5.10;;;;;;;;;;5093043;28;20115;-61
2023/06/06 11:16:38;;;;;;;5.47;4.60;;;;;;;;;;5093441;28;20024;-63
2023/06/06 11:19:08;;;;;;;7.85;5.40;;;;;;;;;;5094529;28;20031;-63
2023/06/06 11:21:38;;;;;;;6.60;5.00;;;;;;;;;;5094251;28;20432;-65
2023/06/06 11:24:05;;;;;;;6.70;5.13;;;;;;;;;;5094017;28;20123;-64
2023/06/06 11:26:33;;;;;;;6.32;5.10;;;;;;;;;;5092185;28;20040;-63
2023/06/06 11:28:59;;;;;;;7.45;5.30;;;;;;;;;;5092491;28;20608;-62
2023/06/06 11:31:26;;;;;;;7.78;5.75;;;;;;;;;;5093837;28;20028;-62
2023/06/06 11:33:52;;;;;;;7.70;5.70;;;;;;;;;;5093651;28;20119;-62
2023/06/06 11:36:21;;;;;;;7.10;5.28;;;;;;;;;;5093812;28;20040;-62
2023/06/06 11:38:46;;;;;;;6.80;5.30;;;;;;;;;;5093537;28;20055;-65
2023/06/06 11:41:12;;;;;;;6.15;5.55;;;;;;;;;;5093573;28;20020;-63
2023/06/06 11:43:48;;;;;;;9.02;5.75;;;;;;;;;;5093854;28;20077;-64
2023/06/06 11:46:13;;;;;;;6.10;5.50;;;;;;;;;;5091723;28;20030;-63
2023/06/06 11:48:39;;;;;;;7.25;4.97;;;;;;;;;;5085996;28;20115;-66
2023/06/06 11:51:14;;;;;;;12.65;5.45;;;;;;;;;;5073411;28;20472;-65
2023/06/06 11:53:40;;;;;;;6.55;5.28;;;;;;;;;;5073418;28;20029;-62
2023/06/06 11:56:06;;;;;;;14.25;5.00;;;;;;;;;;5073008;28;20067;-62
2023/06/06 11:58:38;;;;;;;7.50;4.72;;;;;;;;;;5073125;28;20029;-62
2023/06/06 12:01:04;;;;;;;12.98;4.78;;;;;;;;;;5072202;28;20089;-62
2023/06/06 12:03:33;;;;;;;13.90;4.93;;;;;;;;;;5085307;28;20028;-62
2023/06/06 12:06:00;;;;;;;8.43;5.17;;;;;;;;;;5093191;28;20028;-62
2023/06/06 12:08:26;;;;;;;5.63;4.25;;;;;;;;;;5082537;28;20040;-62
2023/06/06 12:10:51;;;;;;;4.97;4.47;;;;;;;;;;5072892;28;20021;-61
2023/06/06 12:13:33;;;;;;;10.80;4.93;;;;;;;;;;5072701;28;20106;-61
2023/06/06 12:15:59;;;;;;;5.88;5.07;;;;;;;;;;5074576;28;20037;-61
2023/06/06 12:18:25;;;;;;;6.68;4.22;;;;;;;;;;5092592;28;20032;-61
2023/06/06 12:20:51;;;;;;;4.70;4.30;;;;;;;;;;5092937;28;20035;-61
2023/06/06 12:23:30;;;;;;;7.45;4.50;;;;;;;;;;5092914;28;20020;-61
2023/06/06 12:25:59;;;;;;;8.32;4.43;;;;;;;;;;5093180;28;20032;-61
2023/06/06 12:28:25;;;;;;;5.70;4.73;;;;;;;;;;5090448;28;20031;-60
2023/06/06 12:30:54;;;;;;;5.45;4.13;;;;;;;;;;5090877;28;20046;-61
2023/06/06 12:33:21;;;;;;;5.85;4.28;;;;;;;;;;5092613;28;20035;-61
2023/06/06 12:35:48;;;;;;;6.88;4.57;;;;;;;;;;5092502;28;20472;-62
2023/06/06 12:38:23;;;;;;;5.40;4.13;;;;;;;;;;5092290;28;20115;-61
2023/06/06 12:40:55;;;;;;;6.93;4.75;;;;;;;;;;5091064;28;20233;-61
2023/06/06 12:43:21;;;;;;;8.90;4.32;;;;;;;;;;5092346;28;20094;-61
2023/06/06 12:45:47;;;;;;;5.22;4.55;;;;;;;;;;5091725;28;20020;-60
2023/06/06 12:48:12;;;;;;;5.43;4.30;;;;;;;;;;5090425;28;20081;-61
2023/06/06 12:50:40;;;;;;;7.35;4.45;;;;;;;;;;5092199;28;20039;-61
2023/06/06 12:53:07;;;;;;;7.40;4.63;;;;;;;;;;5091766;28;20054;-61
2023/06/06 12:55:33;;;;;;;6.10;4.20;;;;;;;;;;5092203;28;20035;-61
2023/06/06 12:57:59;;;;;;;6.93;4.00;;;;;;;;;;5092294;28;20024;-61
2023/06/06 13:00:24;;;;;;;7.32;4.45;;;;;;;;;;5092247;28;20079;-62
2023/06/06 13:02:50;;;;;;;5.53;4.68;;;;;;;;;;5091958;28;20027;-61
2023/06/06 13:05:15;;;;;;;7.50;4.75;;;;;;;;;;5092331;28;20055;-61
2023/06/06 13:07:41;;;;;;;7.25;4.50;;;;;;;;;;5091798;28;20028;-61
2023/06/06 13:10:08;;;;;;;5.53;4.40;;;;;;;;;;5092006;28;20480;-61
2023/06/06 13:12:42;;;;;;;8.50;4.60;;;;;;;;;;5091646;28;20491;-60
2023/06/06 13:15:09;;;;;;;4.93;4.40;;;;;;;;;;5091815;28;20028;-61
2023/06/06 13:17:35;;;;;;;7.60;4.30;;;;;;;;;;5090158;28;20032;-61
2023/06/06 13:20:01;;;;;;;7.43;4.55;;;;;;;;;;5092030;28;20028;-61
2023/06/06 13:22:27;;;;;;;7.85;4.80;;;;;;;;;;5090719;28;20752;-61
2023/06/06 13:24:53;;;;;;;7.03;4.55;;;;;;;;;;5090004;28;20115;-61
2023/06/06 13:27:19;;;;;;;6.00;4.18;;;;;;;;;;5091558;28;20544;-61
2023/06/06 13:29:45;;;;;;;6.53;4.53;;;;;;;;;;5089827;28;20020;-61
2023/06/06 13:32:11;;;;;;;8.55;4.50;;;;;;;;;;5088531;28;20050;-60
2023/06/06 13:34:36;;;;;;;10.98;4.70;;;;;;;;;;5091127;28;20035;-61
2023/06/06 13:37:03;;;;;;;12.48;4.45;;;;;;;;;;5091399;28;20775;-62
2023/06/06 13:39:29;;;;;;;7.05;4.75;;;;;;;;;;5091088;28;20720;-61
2023/06/06 13:41:56;;;;;;;7.13;4.85;;;;;;;;;;5091276;28;20028;-61
2023/06/06 13:44:22;;;;;;;9.70;4.40;;;;;;;;;;5091115;28;20488;-61
2023/06/06 13:46:49;;;;;;;8.20;4.03;;;;;;;;;;5087054;28;20032;-61
2023/06/06 13:49:17;;;;;;;15.73;4.40;;;;;;;;;;5091062;28;20349;-62
2023/06/06 13:51:44;;;;;;;9.82;4.47;;;;;;;;;;5089905;28;20032;-62
2023/06/06 13:54:10;;;;;;;9.02;4.20;;;;;;;;;;5091244;28;20032;-62
2023/06/06 13:56:47;;;;;;;8.43;4.60;;;;;;;;;;5089670;28;20711;-61
2023/06/06 13:59:16;;;;;;;6.47;4.20;;;;;;;;;;5091460;28;20509;-62
2023/06/06 14:01:46;;;;;;;10.38;4.40;;;;;;;;;;5091300;28;20030;-62
2023/06/06 14:04:12;;;;;;;4.47;4.05;;;;;;;;;;5090972;28;20035;-63
2023/06/06 14:06:38;;;;;;;5.57;4.25;;;;;;;;;;5091071;28;20430;-62
2023/06/06 14:09:04;;;;;;;6.53;4.93;;;;;;;;;;5090940;28;20028;-61
2023/06/06 14:11:29;;;;;;;9.82;4.68;;;;;;;;;;5090852;28;20058;-61
2023/06/06 14:13:55;;;;;;;7.95;4.25;;;;;;;;;;5090659;28;20043;-61
2023/06/06 14:16:20;;;;;;;13.52;6.40;;;;;;;;;;5091139;28;20024;-61
2023/06/06 14:18:53;;;;;;;9.02;5.32;;;;;;;;;;5089459;28;20541;-61
2023/06/06 14:21:45;;;;;;;7.57;5.07;;;;;;;;;;5091169;28;20079;-61
2023/06/06 14:24:11;;;;;;;6.15;4.57;;;;;;;;;;5091079;28;20024;-61
2023/06/06 14:26:37;;;;;;;8.95;4.90;;;;;;;;;;5090632;28;20451;-61
2023/06/06 14:29:03;;;;;;;5.65;4.75;;;;;;;;;;5090694;28;20078;-61
2023/06/06 14:31:28;;;;;;;9.25;4.78;;;;;;;;;;5089500;28;20043;-61
2023/06/06 14:33:54;;;;;;;7.18;5.32;;;;;;;;;;5090687;28;20028;-61
2023/06/06 14:36:19;;;;;;;6.18;4.78;;;;;;;;;;5090945;28;20024;-61
2023/06/06 14:38:46;;;;;;;6.50;5.07;;;;;;;;;;5090573;28;20048;-61
2023/06/06 14:41:11;;;;;;;7.30;4.70;;;;;;;;;;5090649;28;20027;-61
2023/06/06 14:43:37;;;;;;;12.73;4.90;;;;;;;;;;5091021;28;20020;-62
2023/06/06 14:46:02;;;;;;;8.82;5.20;;;;;;;;;;5085554;28;20048;-61